sensor_id;sensor_type;location;lat;lon;timestamp;P1;durP1;ratioP1;P2;durP2;ratioP2
15536;SDS011;7870;52.448;13.270;2022-08-03T00:01:48;7.10;;;3.92;;
15536;SDS011;7870;52.448;13.270;2022-08-03T00:04:15;7.90;;;4.25;;
15536;SDS011;7870;52.448;13.270;2022-08-03T00:06:41;9.00;;;3.75;;
15536;SDS011;7870;52.448;13.270;2022-08-03T00:09:08;6.47;;;3.88;;
15536;SDS011;7870;52.448;13.270;2022-08-03T00:11:34;10.38;;;4.57;;
15536;SDS011;7870;52.448;13.270;2022-08-03T00:14:02;7.10;;;3.80;;
15536;SDS011;7870;52.448;13.270;2022-08-03T00:16:29;6.05;;;4.40;;
15536;SDS011;7870;52.448;13.270;2022-08-03T00:18:55;6.53;;;4.07;;
15536;SDS011;7870;52.448;13.270;2022-08-03T00:21:22;7.53;;;4.30;;
15536;SDS011;7870;52.448;13.270;2022-08-03T00:23:48;7.60;;;3.90;;
15536;SDS011;7870;52.448;13.270;2022-08-03T00:26:17;7.72;;;3.92;;
15536;SDS011;7870;52.448;13.270;2022-08-03T00:28:44;6.40;;;3.95;;
15536;SDS011;7870;52.448;13.270;2022-08-03T00:31:10;7.00;;;4.55;;
15536;SDS011;7870;52.448;13.270;2022-08-03T00:33:38;6.57;;;3.58;;
15536;SDS011;7870;52.448;13.270;2022-08-03T00:36:24;6.95;;;4.10;;
15536;SDS011;7870;52.448;13.270;2022-08-03T00:38:51;6.90;;;3.72;;
15536;SDS011;7870;52.448;13.270;2022-08-03T00:41:17;8.77;;;3.90;;
15536;SDS011;7870;52.448;13.270;2022-08-03T00:43:44;9.45;;;3.80;;
15536;SDS011;7870;52.448;13.270;2022-08-03T00:46:10;7.65;;;3.45;;
15536;SDS011;7870;52.448;13.270;2022-08-03T00:48:37;7.88;;;3.55;;
15536;SDS011;7870;52.448;13.270;2022-08-03T00:51:03;6.38;;;3.80;;
15536;SDS011;7870;52.448;13.270;2022-08-03T00:53:30;8.30;;;3.80;;
15536;SDS011;7870;52.448;13.270;2022-08-03T00:55:57;7.10;;;3.42;;
15536;SDS011;7870;52.448;13.270;2022-08-03T00:58:23;6.97;;;3.55;;
15536;SDS011;7870;52.448;13.270;2022-08-03T01:00:50;4.65;;;3.70;;
15536;SDS011;7870;52.448;13.270;2022-08-03T01:03:16;5.22;;;3.22;;
15536;SDS011;7870;52.448;13.270;2022-08-03T01:05:55;6.47;;;3.67;;
15536;SDS011;7870;52.448;13.270;2022-08-03T01:08:39;5.07;;;2.95;;
15536;SDS011;7870;52.448;13.270;2022-08-03T01:11:11;6.78;;;3.63;;
15536;SDS011;7870;52.448;13.270;2022-08-03T01:13:46;5.82;;;3.28;;
15536;SDS011;7870;52.448;13.270;2022-08-03T01:16:31;7.50;;;3.60;;
15536;SDS011;7870;52.448;13.270;2022-08-03T01:19:26;6.28;;;3.95;;
15536;SDS011;7870;52.448;13.270;2022-08-03T01:22:06;7.50;;;3.53;;
15536;SDS011;7870;52.448;13.270;2022-08-03T01:24:38;6.13;;;3.50;;
15536;SDS011;7870;52.448;13.270;2022-08-03T01:27:20;5.28;;;3.20;;
15536;SDS011;7870;52.448;13.270;2022-08-03T01:29:51;7.57;;;3.20;;
15536;SDS011;7870;52.448;13.270;2022-08-03T01:35:35;9.60;;;3.83;;
15536;SDS011;7870;52.448;13.270;2022-08-03T01:38:12;5.72;;;3.35;;
15536;SDS011;7870;52.448;13.270;2022-08-03T01:40:40;7.03;;;3.25;;
15536;SDS011;7870;52.448;13.270;2022-08-03T01:43:08;5.65;;;2.97;;
15536;SDS011;7870;52.448;13.270;2022-08-03T01:45:36;4.95;;;2.83;;
15536;SDS011;7870;52.448;13.270;2022-08-03T01:48:04;6.45;;;3.45;;
15536;SDS011;7870;52.448;13.270;2022-08-03T01:50:31;6.15;;;3.13;;
15536;SDS011;7870;52.448;13.270;2022-08-03T01:52:59;9.40;;;3.10;;
15536;SDS011;7870;52.448;13.270;2022-08-03T01:55:26;6.07;;;3.20;;
15536;SDS011;7870;52.448;13.270;2022-08-03T01:57:57;5.72;;;3.00;;
15536;SDS011;7870;52.448;13.270;2022-08-03T02:00:32;4.30;;;3.05;;
15536;SDS011;7870;52.448;13.270;2022-08-03T02:03:00;6.70;;;3.47;;
15536;SDS011;7870;52.448;13.270;2022-08-03T02:05:27;6.00;;;3.25;;
15536;SDS011;7870;52.448;13.270;2022-08-03T02:07:54;5.13;;;3.45;;
15536;SDS011;7870;52.448;13.270;2022-08-03T02:10:21;5.70;;;3.72;;
15536;SDS011;7870;52.448;13.270;2022-08-03T02:13:00;7.80;;;4.28;;
15536;SDS011;7870;52.448;13.270;2022-08-03T02:15:28;7.90;;;3.67;;
15536;SDS011;7870;52.448;13.270;2022-08-03T02:17:55;7.32;;;4.25;;
15536;SDS011;7870;52.448;13.270;2022-08-03T02:20:22;5.55;;;3.60;;
15536;SDS011;7870;52.448;13.270;2022-08-03T02:22:50;7.00;;;4.18;;
15536;SDS011;7870;52.448;13.270;2022-08-03T02:25:16;5.85;;;4.15;;
15536;SDS011;7870;52.448;13.270;2022-08-03T02:27:48;7.85;;;4.40;;
15536;SDS011;7870;52.448;13.270;2022-08-03T02:30:16;7.60;;;4.25;;
15536;SDS011;7870;52.448;13.270;2022-08-03T02:32:44;8.02;;;4.68;;
15536;SDS011;7870;52.448;13.270;2022-08-03T02:35:14;9.25;;;5.65;;
15536;SDS011;7870;52.448;13.270;2022-08-03T02:37:42;6.05;;;4.95;;
15536;SDS011;7870;52.448;13.270;2022-08-03T02:40:15;7.18;;;5.20;;
15536;SDS011;7870;52.448;13.270;2022-08-03T02:42:43;9.85;;;6.03;;
15536;SDS011;7870;52.448;13.270;2022-08-03T02:45:11;10.98;;;5.20;;
15536;SDS011;7870;52.448;13.270;2022-08-03T02:47:40;8.43;;;5.05;;
15536;SDS011;7870;52.448;13.270;2022-08-03T02:50:19;7.30;;;5.17;;
15536;SDS011;7870;52.448;13.270;2022-08-03T02:52:47;8.63;;;5.53;;
15536;SDS011;7870;52.448;13.270;2022-08-03T02:55:14;8.60;;;5.03;;
15536;SDS011;7870;52.448;13.270;2022-08-03T02:57:41;9.20;;;4.95;;
15536;SDS011;7870;52.448;13.270;2022-08-03T03:00:08;5.10;;;4.43;;
15536;SDS011;7870;52.448;13.270;2022-08-03T03:02:35;7.57;;;5.28;;
15536;SDS011;7870;52.448;13.270;2022-08-03T03:05:02;7.32;;;4.43;;
15536;SDS011;7870;52.448;13.270;2022-08-03T03:07:48;6.50;;;4.70;;
15536;SDS011;7870;52.448;13.270;2022-08-03T03:10:21;7.95;;;4.90;;
15536;SDS011;7870;52.448;13.270;2022-08-03T03:12:52;10.02;;;5.18;;
15536;SDS011;7870;52.448;13.270;2022-08-03T03:15:19;7.82;;;5.60;;
15536;SDS011;7870;52.448;13.270;2022-08-03T03:17:47;8.50;;;5.18;;
15536;SDS011;7870;52.448;13.270;2022-08-03T03:20:14;6.60;;;4.78;;
15536;SDS011;7870;52.448;13.270;2022-08-03T03:22:56;7.47;;;4.70;;
15536;SDS011;7870;52.448;13.270;2022-08-03T03:25:23;8.52;;;5.32;;
15536;SDS011;7870;52.448;13.270;2022-08-03T03:27:50;6.35;;;4.97;;
15536;SDS011;7870;52.448;13.270;2022-08-03T03:30:16;6.78;;;4.43;;
15536;SDS011;7870;52.448;13.270;2022-08-03T03:32:43;5.95;;;4.95;;
15536;SDS011;7870;52.448;13.270;2022-08-03T03:35:09;10.82;;;4.88;;
15536;SDS011;7870;52.448;13.270;2022-08-03T03:37:36;7.65;;;5.00;;
15536;SDS011;7870;52.448;13.270;2022-08-03T03:40:03;6.38;;;4.80;;
15536;SDS011;7870;52.448;13.270;2022-08-03T03:42:30;7.63;;;4.82;;
15536;SDS011;7870;52.448;13.270;2022-08-03T03:44:57;6.88;;;5.38;;
15536;SDS011;7870;52.448;13.270;2022-08-03T03:47:24;6.30;;;4.55;;
15536;SDS011;7870;52.448;13.270;2022-08-03T03:49:58;8.32;;;4.82;;
15536;SDS011;7870;52.448;13.270;2022-08-03T03:52:24;5.78;;;4.90;;
15536;SDS011;7870;52.448;13.270;2022-08-03T03:54:51;6.65;;;4.80;;
15536;SDS011;7870;52.448;13.270;2022-08-03T03:57:20;8.80;;;4.55;;
15536;SDS011;7870;52.448;13.270;2022-08-03T03:59:47;6.70;;;4.80;;
15536;SDS011;7870;52.448;13.270;2022-08-03T04:02:14;7.03;;;4.38;;
15536;SDS011;7870;52.448;13.270;2022-08-03T04:04:40;10.75;;;5.50;;
15536;SDS011;7870;52.448;13.270;2022-08-03T04:07:26;7.53;;;4.93;;
15536;SDS011;7870;52.448;13.270;2022-08-03T04:10:15;8.00;;;4.85;;
15536;SDS011;7870;52.448;13.270;2022-08-03T04:13:01;6.85;;;4.57;;
15536;SDS011;7870;52.448;13.270;2022-08-03T04:15:29;7.13;;;5.25;;
15536;SDS011;7870;52.448;13.270;2022-08-03T04:17:56;8.15;;;4.93;;
15536;SDS011;7870;52.448;13.270;2022-08-03T04:20:25;7.32;;;5.03;;
15536;SDS011;7870;52.448;13.270;2022-08-03T04:22:53;7.32;;;5.03;;
15536;SDS011;7870;52.448;13.270;2022-08-03T04:25:20;8.25;;;4.75;;
15536;SDS011;7870;52.448;13.270;2022-08-03T04:27:47;7.22;;;4.35;;
15536;SDS011;7870;52.448;13.270;2022-08-03T04:30:35;7.38;;;5.05;;
15536;SDS011;7870;52.448;13.270;2022-08-03T04:33:02;7.82;;;4.55;;
15536;SDS011;7870;52.448;13.270;2022-08-03T04:35:30;6.22;;;5.18;;
15536;SDS011;7870;52.448;13.270;2022-08-03T04:38:18;7.07;;;4.25;;
15536;SDS011;7870;52.448;13.270;2022-08-03T04:40:45;8.73;;;5.40;;
15536;SDS011;7870;52.448;13.270;2022-08-03T04:43:11;6.03;;;4.07;;
15536;SDS011;7870;52.448;13.270;2022-08-03T04:45:40;6.72;;;4.32;;
15536;SDS011;7870;52.448;13.270;2022-08-03T04:48:06;8.23;;;3.65;;
15536;SDS011;7870;52.448;13.270;2022-08-03T04:50:33;7.35;;;3.80;;
15536;SDS011;7870;52.448;13.270;2022-08-03T04:53:03;5.72;;;3.70;;
15536;SDS011;7870;52.448;13.270;2022-08-03T04:55:30;5.50;;;3.00;;
15536;SDS011;7870;52.448;13.270;2022-08-03T04:57:57;5.75;;;3.53;;
15536;SDS011;7870;52.448;13.270;2022-08-03T05:00:24;6.38;;;3.60;;
15536;SDS011;7870;52.448;13.270;2022-08-03T05:02:51;6.25;;;3.35;;
15536;SDS011;7870;52.448;13.270;2022-08-03T05:05:19;6.88;;;2.92;;
15536;SDS011;7870;52.448;13.270;2022-08-03T05:07:47;5.13;;;3.10;;
15536;SDS011;7870;52.448;13.270;2022-08-03T05:10:14;5.15;;;3.20;;
15536;SDS011;7870;52.448;13.270;2022-08-03T05:12:42;5.45;;;2.85;;
15536;SDS011;7870;52.448;13.270;2022-08-03T05:15:09;5.55;;;3.40;;
15536;SDS011;7870;52.448;13.270;2022-08-03T05:17:35;7.00;;;3.05;;
15536;SDS011;7870;52.448;13.270;2022-08-03T05:20:02;6.18;;;2.72;;
15536;SDS011;7870;52.448;13.270;2022-08-03T05:22:29;6.10;;;3.30;;
15536;SDS011;7870;52.448;13.270;2022-08-03T05:24:56;6.25;;;2.60;;
15536;SDS011;7870;52.448;13.270;2022-08-03T05:27:22;4.93;;;2.53;;
15536;SDS011;7870;52.448;13.270;2022-08-03T05:29:49;6.85;;;2.38;;
15536;SDS011;7870;52.448;13.270;2022-08-03T05:32:16;4.75;;;2.30;;
15536;SDS011;7870;52.448;13.270;2022-08-03T05:34:43;5.70;;;3.08;;
15536;SDS011;7870;52.448;13.270;2022-08-03T05:37:10;4.43;;;2.33;;
15536;SDS011;7870;52.448;13.270;2022-08-03T05:39:36;7.35;;;2.25;;
15536;SDS011;7870;52.448;13.270;2022-08-03T05:42:03;6.47;;;2.40;;
15536;SDS011;7870;52.448;13.270;2022-08-03T05:44:29;9.13;;;2.13;;
15536;SDS011;7870;52.448;13.270;2022-08-03T05:46:57;3.60;;;2.03;;
15536;SDS011;7870;52.448;13.270;2022-08-03T05:49:23;7.20;;;2.10;;
15536;SDS011;7870;52.448;13.270;2022-08-03T05:51:50;4.97;;;2.20;;
15536;SDS011;7870;52.448;13.270;2022-08-03T05:54:36;3.42;;;1.85;;
15536;SDS011;7870;52.448;13.270;2022-08-03T05:57:22;7.00;;;2.08;;
15536;SDS011;7870;52.448;13.270;2022-08-03T05:59:49;6.22;;;2.45;;
15536;SDS011;7870;52.448;13.270;2022-08-03T06:02:23;5.13;;;1.88;;
15536;SDS011;7870;52.448;13.270;2022-08-03T06:04:50;5.28;;;1.92;;
15536;SDS011;7870;52.448;13.270;2022-08-03T06:07:16;7.75;;;2.17;;
15536;SDS011;7870;52.448;13.270;2022-08-03T06:09:43;5.25;;;2.40;;
15536;SDS011;7870;52.448;13.270;2022-08-03T06:12:29;4.85;;;2.10;;
15536;SDS011;7870;52.448;13.270;2022-08-03T06:14:56;5.75;;;2.10;;
15536;SDS011;7870;52.448;13.270;2022-08-03T06:17:22;5.95;;;2.33;;
15536;SDS011;7870;52.448;13.270;2022-08-03T06:19:52;5.97;;;2.45;;
15536;SDS011;7870;52.448;13.270;2022-08-03T06:22:19;6.75;;;1.85;;
15536;SDS011;7870;52.448;13.270;2022-08-03T06:24:46;5.35;;;1.83;;
15536;SDS011;7870;52.448;13.270;2022-08-03T06:27:19;4.47;;;1.85;;
15536;SDS011;7870;52.448;13.270;2022-08-03T06:30:02;4.72;;;1.65;;
15536;SDS011;7870;52.448;13.270;2022-08-03T06:32:29;5.72;;;2.05;;
15536;SDS011;7870;52.448;13.270;2022-08-03T06:34:55;4.60;;;1.80;;
15536;SDS011;7870;52.448;13.270;2022-08-03T06:37:21;6.45;;;1.80;;
15536;SDS011;7870;52.448;13.270;2022-08-03T06:39:49;5.88;;;1.88;;
15536;SDS011;7870;52.448;13.270;2022-08-03T06:42:16;7.68;;;2.00;;
15536;SDS011;7870;52.448;13.270;2022-08-03T06:44:42;4.03;;;1.65;;
15536;SDS011;7870;52.448;13.270;2022-08-03T06:47:09;5.82;;;1.65;;
15536;SDS011;7870;52.448;13.270;2022-08-03T06:49:35;5.70;;;2.10;;
15536;SDS011;7870;52.448;13.270;2022-08-03T06:52:03;7.38;;;1.95;;
15536;SDS011;7870;52.448;13.270;2022-08-03T06:54:50;5.15;;;1.58;;
15536;SDS011;7870;52.448;13.270;2022-08-03T06:57:16;8.35;;;1.40;;
15536;SDS011;7870;52.448;13.270;2022-08-03T06:59:43;4.57;;;1.42;;
15536;SDS011;7870;52.448;13.270;2022-08-03T07:02:30;5.63;;;1.63;;
15536;SDS011;7870;52.448;13.270;2022-08-03T07:04:57;3.28;;;1.70;;
15536;SDS011;7870;52.448;13.270;2022-08-03T07:07:24;7.70;;;1.73;;
15536;SDS011;7870;52.448;13.270;2022-08-03T07:09:50;7.43;;;1.70;;
15536;SDS011;7870;52.448;13.270;2022-08-03T07:12:23;7.78;;;2.00;;
15536;SDS011;7870;52.448;13.270;2022-08-03T07:14:49;6.47;;;1.65;;
15536;SDS011;7870;52.448;13.270;2022-08-03T07:17:16;7.80;;;1.60;;
15536;SDS011;7870;52.448;13.270;2022-08-03T07:19:42;2.92;;;1.35;;
15536;SDS011;7870;52.448;13.270;2022-08-03T07:22:09;6.95;;;1.50;;
15536;SDS011;7870;52.448;13.270;2022-08-03T07:24:36;4.63;;;1.92;;
15536;SDS011;7870;52.448;13.270;2022-08-03T07:27:03;4.43;;;1.50;;
15536;SDS011;7870;52.448;13.270;2022-08-03T07:29:29;6.70;;;1.70;;
15536;SDS011;7870;52.448;13.270;2022-08-03T07:31:59;3.38;;;1.60;;
15536;SDS011;7870;52.448;13.270;2022-08-03T07:34:26;2.72;;;1.17;;
15536;SDS011;7870;52.448;13.270;2022-08-03T07:36:52;2.63;;;1.38;;
15536;SDS011;7870;52.448;13.270;2022-08-03T07:39:19;3.20;;;1.50;;
15536;SDS011;7870;52.448;13.270;2022-08-03T07:41:45;4.47;;;1.30;;
15536;SDS011;7870;52.448;13.270;2022-08-03T07:44:12;5.20;;;1.50;;
15536;SDS011;7870;52.448;13.270;2022-08-03T07:46:39;4.18;;;1.42;;
15536;SDS011;7870;52.448;13.270;2022-08-03T07:49:06;5.22;;;1.58;;
15536;SDS011;7870;52.448;13.270;2022-08-03T07:51:32;4.45;;;1.60;;
15536;SDS011;7870;52.448;13.270;2022-08-03T07:53:59;5.63;;;1.20;;
15536;SDS011;7870;52.448;13.270;2022-08-03T07:56:26;3.45;;;1.20;;
15536;SDS011;7870;52.448;13.270;2022-08-03T07:58:53;5.75;;;1.65;;
15536;SDS011;7870;52.448;13.270;2022-08-03T08:01:20;5.07;;;1.60;;
15536;SDS011;7870;52.448;13.270;2022-08-03T08:03:48;6.43;;;1.63;;
15536;SDS011;7870;52.448;13.270;2022-08-03T08:06:19;4.65;;;1.65;;
15536;SDS011;7870;52.448;13.270;2022-08-03T08:08:45;4.05;;;1.50;;
15536;SDS011;7870;52.448;13.270;2022-08-03T08:11:12;4.32;;;1.30;;
15536;SDS011;7870;52.448;13.270;2022-08-03T08:13:38;3.58;;;1.23;;
15536;SDS011;7870;52.448;13.270;2022-08-03T08:16:05;4.35;;;1.50;;
15536;SDS011;7870;52.448;13.270;2022-08-03T08:18:32;4.63;;;1.77;;
15536;SDS011;7870;52.448;13.270;2022-08-03T08:20:59;4.18;;;1.27;;
15536;SDS011;7870;52.448;13.270;2022-08-03T08:23:26;4.18;;;1.38;;
15536;SDS011;7870;52.448;13.270;2022-08-03T08:26:09;3.00;;;1.55;;
15536;SDS011;7870;52.448;13.270;2022-08-03T08:28:35;3.85;;;1.33;;
15536;SDS011;7870;52.448;13.270;2022-08-03T08:31:02;4.18;;;1.40;;
15536;SDS011;7870;52.448;13.270;2022-08-03T08:33:29;7.43;;;1.30;;
15536;SDS011;7870;52.448;13.270;2022-08-03T08:36:15;3.83;;;1.40;;
15536;SDS011;7870;52.448;13.270;2022-08-03T08:38:42;2.78;;;1.20;;
15536;SDS011;7870;52.448;13.270;2022-08-03T08:41:10;3.08;;;1.00;;
15536;SDS011;7870;52.448;13.270;2022-08-03T08:43:37;2.80;;;1.38;;
15536;SDS011;7870;52.448;13.270;2022-08-03T08:46:04;5.88;;;1.30;;
15536;SDS011;7870;52.448;13.270;2022-08-03T08:48:33;8.77;;;1.50;;
15536;SDS011;7870;52.448;13.270;2022-08-03T08:51:00;6.38;;;1.25;;
15536;SDS011;7870;52.448;13.270;2022-08-03T08:53:28;4.43;;;1.38;;
15536;SDS011;7870;52.448;13.270;2022-08-03T08:55:57;5.47;;;1.63;;
15536;SDS011;7870;52.448;13.270;2022-08-03T08:58:31;2.55;;;1.20;;
15536;SDS011;7870;52.448;13.270;2022-08-03T09:00:59;5.45;;;1.20;;
15536;SDS011;7870;52.448;13.270;2022-08-03T09:03:26;3.95;;;1.00;;
15536;SDS011;7870;52.448;13.270;2022-08-03T09:05:56;4.20;;;1.27;;
15536;SDS011;7870;52.448;13.270;2022-08-03T09:08:24;3.28;;;1.02;;
15536;SDS011;7870;52.448;13.270;2022-08-03T09:10:50;3.45;;;1.25;;
15536;SDS011;7870;52.448;13.270;2022-08-03T09:13:17;4.18;;;1.00;;
15536;SDS011;7870;52.448;13.270;2022-08-03T09:15:43;6.75;;;1.20;;
15536;SDS011;7870;52.448;13.270;2022-08-03T09:18:29;5.65;;;1.33;;
15536;SDS011;7870;52.448;13.270;2022-08-03T09:23:57;6.07;;;1.35;;
15536;SDS011;7870;52.448;13.270;2022-08-03T09:26:29;3.50;;;1.10;;
15536;SDS011;7870;52.448;13.270;2022-08-03T09:28:58;6.95;;;1.50;;
15536;SDS011;7870;52.448;13.270;2022-08-03T09:31:33;5.43;;;1.35;;
15536;SDS011;7870;52.448;13.270;2022-08-03T09:34:01;2.80;;;1.02;;
15536;SDS011;7870;52.448;13.270;2022-08-03T09:36:34;5.35;;;1.13;;
15536;SDS011;7870;52.448;13.270;2022-08-03T09:39:02;3.40;;;1.20;;
15536;SDS011;7870;52.448;13.270;2022-08-03T09:41:31;3.65;;;1.08;;
15536;SDS011;7870;52.448;13.270;2022-08-03T09:44:00;4.22;;;1.15;;
15536;SDS011;7870;52.448;13.270;2022-08-03T09:46:27;4.47;;;1.08;;
15536;SDS011;7870;52.448;13.270;2022-08-03T09:51:23;5.32;;;0.93;;
15536;SDS011;7870;52.448;13.270;2022-08-03T09:54:11;3.13;;;0.98;;
15536;SDS011;7870;52.448;13.270;2022-08-03T09:56:46;2.08;;;0.80;;
15536;SDS011;7870;52.448;13.270;2022-08-03T09:59:21;1.95;;;0.80;;
15536;SDS011;7870;52.448;13.270;2022-08-03T10:01:48;3.10;;;1.10;;
15536;SDS011;7870;52.448;13.270;2022-08-03T10:04:14;2.83;;;1.00;;
15536;SDS011;7870;52.448;13.270;2022-08-03T10:06:43;4.10;;;1.00;;
15536;SDS011;7870;52.448;13.270;2022-08-03T10:09:10;3.83;;;1.10;;
15536;SDS011;7870;52.448;13.270;2022-08-03T10:11:37;5.90;;;1.10;;
15536;SDS011;7870;52.448;13.270;2022-08-03T10:14:08;2.45;;;1.00;;
15536;SDS011;7870;52.448;13.270;2022-08-03T10:16:35;3.65;;;1.20;;
15536;SDS011;7870;52.448;13.270;2022-08-03T10:19:06;3.60;;;1.15;;
15536;SDS011;7870;52.448;13.270;2022-08-03T10:21:34;3.17;;;1.15;;
15536;SDS011;7870;52.448;13.270;2022-08-03T10:24:08;3.75;;;1.30;;
15536;SDS011;7870;52.448;13.270;2022-08-03T10:26:45;4.38;;;1.00;;
15536;SDS011;7870;52.448;13.270;2022-08-03T10:29:21;5.50;;;1.27;;
15536;SDS011;7870;52.448;13.270;2022-08-03T10:31:50;4.63;;;1.30;;
15536;SDS011;7870;52.448;13.270;2022-08-03T10:34:25;4.93;;;1.00;;
15536;SDS011;7870;52.448;13.270;2022-08-03T10:36:55;4.82;;;1.10;;
15536;SDS011;7870;52.448;13.270;2022-08-03T10:39:23;2.10;;;1.00;;
15536;SDS011;7870;52.448;13.270;2022-08-03T10:41:58;3.65;;;1.15;;
15536;SDS011;7870;52.448;13.270;2022-08-03T10:44:31;2.03;;;1.10;;
15536;SDS011;7870;52.448;13.270;2022-08-03T10:46:58;4.47;;;1.10;;
15536;SDS011;7870;52.448;13.270;2022-08-03T10:49:29;3.03;;;1.15;;
15536;SDS011;7870;52.448;13.270;2022-08-03T10:51:59;3.20;;;0.93;;
15536;SDS011;7870;52.448;13.270;2022-08-03T10:54:42;2.88;;;0.90;;
15536;SDS011;7870;52.448;13.270;2022-08-03T11:00:18;2.50;;;0.80;;
15536;SDS011;7870;52.448;13.270;2022-08-03T11:05:24;4.00;;;1.10;;
15536;SDS011;7870;52.448;13.270;2022-08-03T11:08:02;3.05;;;0.90;;
15536;SDS011;7870;52.448;13.270;2022-08-03T11:10:37;5.38;;;1.00;;
15536;SDS011;7870;52.448;13.270;2022-08-03T11:13:06;2.30;;;1.00;;
15536;SDS011;7870;52.448;13.270;2022-08-03T11:15:34;3.10;;;0.80;;
15536;SDS011;7870;52.448;13.270;2022-08-03T11:18:08;3.90;;;1.30;;
15536;SDS011;7870;52.448;13.270;2022-08-03T11:20:55;5.72;;;1.30;;
15536;SDS011;7870;52.448;13.270;2022-08-03T11:23:42;2.70;;;1.55;;
15536;SDS011;7870;52.448;13.270;2022-08-03T11:26:28;4.47;;;1.20;;
15536;SDS011;7870;52.448;13.270;2022-08-03T11:29:09;3.47;;;0.90;;
15536;SDS011;7870;52.448;13.270;2022-08-03T11:34:17;1.67;;;1.00;;
15536;SDS011;7870;52.448;13.270;2022-08-03T11:39:38;2.58;;;0.77;;
15536;SDS011;7870;52.448;13.270;2022-08-03T11:44:50;5.55;;;1.10;;
15536;SDS011;7870;52.448;13.270;2022-08-03T11:47:17;2.55;;;1.10;;
15536;SDS011;7870;52.448;13.270;2022-08-03T11:49:46;3.05;;;1.05;;
15536;SDS011;7870;52.448;13.270;2022-08-03T11:52:12;2.03;;;0.90;;
15536;SDS011;7870;52.448;13.270;2022-08-03T11:54:39;3.20;;;1.10;;
15536;SDS011;7870;52.448;13.270;2022-08-03T11:57:06;4.80;;;1.10;;
15536;SDS011;7870;52.448;13.270;2022-08-03T11:59:32;3.33;;;1.20;;
15536;SDS011;7870;52.448;13.270;2022-08-03T12:02:09;3.60;;;1.27;;
15536;SDS011;7870;52.448;13.270;2022-08-03T12:04:52;7.85;;;1.55;;
15536;SDS011;7870;52.448;13.270;2022-08-03T12:07:19;4.68;;;1.45;;
15536;SDS011;7870;52.448;13.270;2022-08-03T12:10:06;3.10;;;1.23;;
15536;SDS011;7870;52.448;13.270;2022-08-03T12:12:32;2.45;;;0.93;;
15536;SDS011;7870;52.448;13.270;2022-08-03T12:14:59;3.40;;;1.20;;
15536;SDS011;7870;52.448;13.270;2022-08-03T12:17:35;2.55;;;1.00;;
15536;SDS011;7870;52.448;13.270;2022-08-03T12:20:03;5.05;;;1.20;;
15536;SDS011;7870;52.448;13.270;2022-08-03T12:22:33;2.08;;;1.20;;
15536;SDS011;7870;52.448;13.270;2022-08-03T12:25:00;1.67;;;1.05;;
15536;SDS011;7870;52.448;13.270;2022-08-03T12:27:26;4.68;;;1.20;;
15536;SDS011;7870;52.448;13.270;2022-08-03T12:29:56;4.23;;;1.00;;
15536;SDS011;7870;52.448;13.270;2022-08-03T12:32:24;3.90;;;1.02;;
15536;SDS011;7870;52.448;13.270;2022-08-03T12:34:51;5.95;;;1.30;;
15536;SDS011;7870;52.448;13.270;2022-08-03T12:37:18;4.05;;;1.02;;
15536;SDS011;7870;52.448;13.270;2022-08-03T12:39:58;2.83;;;1.05;;
15536;SDS011;7870;52.448;13.270;2022-08-03T12:42:36;2.85;;;1.10;;
15536;SDS011;7870;52.448;13.270;2022-08-03T12:45:21;8.45;;;1.20;;
15536;SDS011;7870;52.448;13.270;2022-08-03T12:47:49;3.22;;;1.05;;
15536;SDS011;7870;52.448;13.270;2022-08-03T12:50:49;2.53;;;1.02;;
15536;SDS011;7870;52.448;13.270;2022-08-03T12:53:08;2.15;;;0.90;;
15536;SDS011;7870;52.448;13.270;2022-08-03T12:55:36;1.40;;;0.90;;
15536;SDS011;7870;52.448;13.270;2022-08-03T12:58:57;2.78;;;1.00;;
15536;SDS011;7870;52.448;13.270;2022-08-03T13:01:16;3.10;;;1.15;;
15536;SDS011;7870;52.448;13.270;2022-08-03T13:03:45;5.22;;;1.27;;
15536;SDS011;7870;52.448;13.270;2022-08-03T13:06:18;3.45;;;1.20;;
15536;SDS011;7870;52.448;13.270;2022-08-03T13:08:46;1.98;;;1.00;;
15536;SDS011;7870;52.448;13.270;2022-08-03T13:11:20;3.65;;;0.93;;
15536;SDS011;7870;52.448;13.270;2022-08-03T13:13:47;4.20;;;1.00;;
15536;SDS011;7870;52.448;13.270;2022-08-03T13:16:13;2.55;;;1.02;;
15536;SDS011;7870;52.448;13.270;2022-08-03T13:18:44;2.67;;;1.20;;
15536;SDS011;7870;52.448;13.270;2022-08-03T13:21:16;2.47;;;0.80;;
15536;SDS011;7870;52.448;13.270;2022-08-03T13:23:43;2.75;;;0.80;;
15536;SDS011;7870;52.448;13.270;2022-08-03T13:26:10;3.05;;;0.90;;
15536;SDS011;7870;52.448;13.270;2022-08-03T13:28:39;4.55;;;0.80;;
15536;SDS011;7870;52.448;13.270;2022-08-03T13:31:06;2.00;;;1.00;;
15536;SDS011;7870;52.448;13.270;2022-08-03T13:33:32;4.13;;;1.30;;
15536;SDS011;7870;52.448;13.270;2022-08-03T13:35:59;2.00;;;1.00;;
15536;SDS011;7870;52.448;13.270;2022-08-03T13:38:25;3.08;;;1.00;;
15536;SDS011;7870;52.448;13.270;2022-08-03T13:40:53;2.30;;;1.00;;
15536;SDS011;7870;52.448;13.270;2022-08-03T13:43:21;3.92;;;1.08;;
15536;SDS011;7870;52.448;13.270;2022-08-03T13:45:47;1.63;;;0.82;;
15536;SDS011;7870;52.448;13.270;2022-08-03T13:48:21;2.95;;;1.00;;
15536;SDS011;7870;52.448;13.270;2022-08-03T13:51:03;4.03;;;0.80;;
15536;SDS011;7870;52.448;13.270;2022-08-03T13:53:47;1.58;;;0.80;;
15536;SDS011;7870;52.448;13.270;2022-08-03T13:56:14;2.88;;;1.08;;
15536;SDS011;7870;52.448;13.270;2022-08-03T13:58:40;1.85;;;1.00;;
15536;SDS011;7870;52.448;13.270;2022-08-03T14:01:07;2.45;;;1.02;;
15536;SDS011;7870;52.448;13.270;2022-08-03T14:03:33;2.22;;;1.10;;
15536;SDS011;7870;52.448;13.270;2022-08-03T14:05:59;1.42;;;0.98;;
15536;SDS011;7870;52.448;13.270;2022-08-03T14:08:26;1.98;;;1.10;;
15536;SDS011;7870;52.448;13.270;2022-08-03T14:10:52;4.00;;;1.35;;
15536;SDS011;7870;52.448;13.270;2022-08-03T14:13:19;3.40;;;1.08;;
15536;SDS011;7870;52.448;13.270;2022-08-03T14:15:46;3.22;;;1.30;;
15536;SDS011;7870;52.448;13.270;2022-08-03T14:18:17;4.57;;;1.23;;
15536;SDS011;7870;52.448;13.270;2022-08-03T14:20:59;4.35;;;0.98;;
15536;SDS011;7870;52.448;13.270;2022-08-03T14:23:30;3.97;;;0.98;;
15536;SDS011;7870;52.448;13.270;2022-08-03T14:25:58;3.25;;;1.92;;
15536;SDS011;7870;52.448;13.270;2022-08-03T14:28:24;6.32;;;1.33;;
15536;SDS011;7870;52.448;13.270;2022-08-03T14:30:51;4.45;;;0.90;;
15536;SDS011;7870;52.448;13.270;2022-08-03T14:33:18;1.80;;;1.02;;
15536;SDS011;7870;52.448;13.270;2022-08-03T14:35:44;2.95;;;1.00;;
15536;SDS011;7870;52.448;13.270;2022-08-03T14:38:11;1.58;;;0.88;;
15536;SDS011;7870;52.448;13.270;2022-08-03T14:40:37;2.75;;;1.23;;
15536;SDS011;7870;52.448;13.270;2022-08-03T14:43:04;5.40;;;1.30;;
15536;SDS011;7870;52.448;13.270;2022-08-03T14:45:30;4.45;;;1.15;;
15536;SDS011;7870;52.448;13.270;2022-08-03T14:47:57;4.80;;;1.30;;
15536;SDS011;7870;52.448;13.270;2022-08-03T14:50:45;4.10;;;1.30;;
15536;SDS011;7870;52.448;13.270;2022-08-03T14:53:17;2.17;;;1.10;;
15536;SDS011;7870;52.448;13.270;2022-08-03T14:55:44;3.67;;;1.10;;
15536;SDS011;7870;52.448;13.270;2022-08-03T14:58:16;3.67;;;1.40;;
15536;SDS011;7870;52.448;13.270;2022-08-03T15:03:12;3.72;;;1.30;;
15536;SDS011;7870;52.448;13.270;2022-08-03T15:05:42;3.05;;;1.10;;
15536;SDS011;7870;52.448;13.270;2022-08-03T15:08:08;2.70;;;1.50;;
15536;SDS011;7870;52.448;13.270;2022-08-03T15:10:35;2.95;;;1.20;;
15536;SDS011;7870;52.448;13.270;2022-08-03T15:13:10;3.72;;;1.10;;
15536;SDS011;7870;52.448;13.270;2022-08-03T15:15:36;2.90;;;1.10;;
15536;SDS011;7870;52.448;13.270;2022-08-03T15:18:03;4.07;;;1.48;;
15536;SDS011;7870;52.448;13.270;2022-08-03T15:20:29;6.15;;;2.15;;
15536;SDS011;7870;52.448;13.270;2022-08-03T15:23:09;3.38;;;1.40;;
15536;SDS011;7870;52.448;13.270;2022-08-03T15:25:35;3.53;;;1.55;;
15536;SDS011;7870;52.448;13.270;2022-08-03T15:28:47;1.98;;;1.33;;
15536;SDS011;7870;52.448;13.270;2022-08-03T15:31:14;2.00;;;1.10;;